Aérodrome :
LOGIN :

S'inscrire | Disclaimer

   EN    FR    IT 

 










Légende :    VFR   VFR Marginal   IFR   IFR Intensif   IFR Très Intensif
Visi : 
Plafond : 
>= 8 km
>= 3000ft
5 à 8 km
1000 à 3000 ft
1500m à 5 km
500 à 1000 ft
800 à 1500m
200 à 500 ft
< 800m
< 200 ft
Symboles :   Orages  Brouillard  Fortes neiges  Fortes précipitations  Vent > 20 kt
SIGMETs :   Divers  Orages  Givrage  Turbulence  Onde Orograph.  Cendres Volcan.







- Altitude de l'aérodrome : 768 ft
- Code IATA : MXP


LIMC - Milano Malpensa

DERNIER METAR :
  • 150950Z VRB02KT 9999 BKN070 18/11 Q1020 NOSIG

METARs EXPIRÉS :
  • 150920Z VRB02KT 9999 BKN070 18/11 Q1020 NOSIG
  • 150850Z VRB02KT 9000 BKN070 18/12 Q1020 NOSIG
  • 150820Z 01004KT 9999 FEW070 17/12 Q1019 NOSIG
  • 150750Z 02004KT 9000 NSC 16/12 Q1019 NOSIG
  • 150720Z 02005KT 9000 NSC 15/13 Q1019 NOSIG

TAF TAF LIMC
Valide du 15 à 06h jusqu'au 16 à 12h UTC


150500Z 1506/1612 VRB05KT 9999 SCT060
PROB40
TEMPO 1506/1514 4000 SHRA
TEMPO 1600/1607 3000 BCFG
Pas de NOTAMs connus pour ce terrain.



MET'MAP, la Météo Aéronautique d'un coup d'oeil ! - Copyright ORBIFLY Décembre 2007 - Disclaimer

ORBIFLY MET'MAP TEAM :

Programmation & Développement : Alexandra Zaïnal
Conception & Développement : Baudouin d'Aumeries
Co-Programmation & Développement : Marc-Olivier Méhu
Soutien technique & logistique : Manuel Goepfert

Contact : metmap@orbifly.com




SOURCES & CREDITS :

   NOAA